PWSweather.com
Personal Weather Stations
Station Observations
HASBROUCK
Northern New Jersey, Hasbrouck Heights, NJ 07604

Northern New JerseyHasbrouck Heights, NJ 07604

Lat: 40.8563, Lon: -74.08453

Elevation: 160

Station Type: Davis Vantage Pro2 Plus

http://heightsweather.info

High Low Average
Temperature 35.8°F2.1°C 26.6°F-3.0°C 32.5°F0.3°C
Dew Point 31.9°F-0.1°C 21.3°F-5.9°C 25.7°F-3.5°C
Winds 8.1 mph 13.0 kmh Calm Calm 3.0 mph S4.8 kmh S
Wind Gusts 13.8 mph22.2 kmh -- 5.0 mph8.0 kmh
Humidity 93% 64% 76%
Pressure 30.24 in1024.0 mb 29.81 in1009.5 mb -
Precipitation 0.09 in2.3 mm - -
Hour Temp Dew Point Humidity Winds Wind Gusts Pressure Precip Precip Rate Daily Precip Total
12:00 AM 32.5°F0.3°C 25.8°F-3.4°C 76% 1.2 mph NW1.9 kmh NW 3.5 mph5.6 kmh 30.15 in1021.0 mb - 0.00 in0.0 mm 0.00 in0.0 mm
12:15 AM 31.8°F-0.1°C 25.7°F-3.5°C 78% Calm Calm 2.3 mph3.7 kmh 30.15 in1021.0 mb - 0.00 in0.0 mm 0.00 in0.0 mm
12:30 AM 31.5°F-0.3°C 25.4°F-3.7°C 78% 1.2 mph NW1.9 kmh NW 1.2 mph1.9 kmh 30.15 in1021.0 mb - 0.00 in0.0 mm 0.00 in0.0 mm
12:45 AM 31.2°F-0.4°C 25.1°F-3.8°C 78% Calm Calm 1.2 mph1.9 kmh 30.15 in1021.0 mb - 0.00 in0.0 mm 0.00 in0.0 mm
01:00 AM 31.6°F-0.2°C 24.9°F-3.9°C 76% 1.2 mph NW1.9 kmh NW 3.5 mph5.6 kmh 30.15 in1021.0 mb - 0.00 in0.0 mm 0.00 in0.0 mm
01:15 AM 31.4°F-0.3°C 24.4°F-4.2°C 75% 1.2 mph NW1.9 kmh NW 3.5 mph5.6 kmh 30.14 in1020.7 mb - 0.00 in0.0 mm 0.00 in0.0 mm
01:30 AM 30.8°F-0.7°C 23.8°F-4.6°C 75% Calm Calm 1.2 mph1.9 kmh 30.15 in1021.0 mb - 0.00 in0.0 mm 0.00 in0.0 mm
01:45 AM 30.4°F-0.9°C 23.7°F-4.6°C 76% Calm Calm -- 30.16 in1021.3 mb - 0.00 in0.0 mm 0.00 in0.0 mm
02:00 AM 29.9°F-1.2°C 23.8°F-4.6°C 78% Calm Calm 1.2 mph1.9 kmh 30.16 in1021.3 mb - 0.00 in0.0 mm 0.00 in0.0 mm
02:15 AM 29.9°F-1.2°C 23.9°F-4.5°C 78% Calm Calm 1.2 mph1.9 kmh 30.17 in1021.7 mb - 0.00 in0.0 mm 0.00 in0.0 mm
02:30 AM 29.9°F-1.2°C 23.9°F-4.5°C 78% Calm Calm 1.2 mph1.9 kmh 30.18 in1022.0 mb - 0.00 in0.0 mm 0.00 in0.0 mm
02:45 AM 30.0°F-1.1°C 24.0°F-4.4°C 78% Calm Calm 2.3 mph3.7 kmh 30.19 in1022.4 mb - 0.00 in0.0 mm 0.00 in0.0 mm
03:00 AM 29.9°F-1.2°C 23.9°F-4.5°C 78% Calm Calm 1.2 mph1.9 kmh 30.18 in1022.0 mb - 0.00 in0.0 mm 0.00 in0.0 mm
03:15 AM 29.3°F-1.5°C 23.3°F-4.8°C 78% Calm Calm 1.2 mph1.9 kmh 30.17 in1021.7 mb - 0.00 in0.0 mm 0.00 in0.0 mm
03:30 AM 28.9°F-1.7°C 22.9°F-5.1°C 78% Calm Calm -- 30.17 in1021.7 mb - 0.00 in0.0 mm 0.00 in0.0 mm
03:45 AM 29.0°F-1.7°C 23.0°F-5.0°C 78% 1.2 mph WNW1.9 kmh WNW 3.5 mph5.6 kmh 30.18 in1022.0 mb - 0.00 in0.0 mm 0.00 in0.0 mm
04:00 AM 29.0°F-1.7°C 22.7°F-5.2°C 77% Calm Calm 1.2 mph1.9 kmh 30.17 in1021.7 mb - 0.00 in0.0 mm 0.00 in0.0 mm
04:15 AM 28.8°F-1.8°C 22.5°F-5.3°C 77% 1.2 mph NW1.9 kmh NW 1.2 mph1.9 kmh 30.17 in1021.7 mb - 0.00 in0.0 mm 0.00 in0.0 mm
04:30 AM 28.5°F-1.9°C 22.2°F-5.4°C 77% Calm Calm -- 30.17 in1021.7 mb - 0.00 in0.0 mm 0.00 in0.0 mm
04:45 AM 28.1°F-2.2°C 22.1°F-5.5°C 78% Calm Calm 1.2 mph1.9 kmh 30.17 in1021.7 mb - 0.00 in0.0 mm 0.00 in0.0 mm
05:00 AM 27.5°F-2.5°C 21.8°F-5.7°C 79% Calm Calm -- 30.17 in1021.7 mb - 0.00 in0.0 mm 0.00 in0.0 mm
05:15 AM 27.4°F-2.6°C 22.0°F-5.6°C 80% Calm Calm -- 30.18 in1022.0 mb - 0.00 in0.0 mm 0.00 in0.0 mm
05:30 AM 27.1°F-2.7°C 21.7°F-5.7°C 80% 1.2 mph NW1.9 kmh NW 3.5 mph5.6 kmh 30.18 in1022.0 mb - 0.00 in0.0 mm 0.00 in0.0 mm
05:45 AM 26.9°F-2.8°C 21.6°F-5.8°C 80% Calm Calm 1.2 mph1.9 kmh 30.19 in1022.4 mb - 0.00 in0.0 mm 0.00 in0.0 mm
06:00 AM 26.7°F-2.9°C 21.7°F-5.7°C 81% Calm Calm 2.3 mph3.7 kmh 30.20 in1022.7 mb - 0.00 in0.0 mm 0.00 in0.0 mm
06:15 AM 26.6°F-3.0°C 21.6°F-5.8°C 81% Calm Calm -- 30.20 in1022.7 mb - 0.00 in0.0 mm 0.00 in0.0 mm
06:30 AM 26.7°F-2.9°C 21.7°F-5.7°C 81% Calm Calm -- 30.19 in1022.4 mb - 0.00 in0.0 mm 0.00 in0.0 mm
06:45 AM 26.6°F-3.0°C 21.3°F-5.9°C 80% Calm Calm -- 30.18 in1022.0 mb - 0.00 in0.0 mm 0.00 in0.0 mm
07:00 AM 26.9°F-2.8°C 21.8°F-5.7°C 81% Calm Calm -- 30.19 in1022.4 mb - 0.00 in0.0 mm 0.00 in0.0 mm
07:15 AM 26.6°F-3.0°C 21.6°F-5.8°C 81% Calm Calm -- 30.19 in1022.4 mb - 0.00 in0.0 mm 0.00 in0.0 mm
07:30 AM 26.8°F-2.9°C 21.8°F-5.7°C 81% Calm Calm -- 30.19 in1022.4 mb - 0.00 in0.0 mm 0.00 in0.0 mm
07:45 AM 27.4°F-2.6°C 22.3°F-5.4°C 81% Calm Calm 2.3 mph3.7 kmh 30.20 in1022.7 mb - 0.00 in0.0 mm 0.00 in0.0 mm
08:00 AM 28.3°F-2.1°C 22.9°F-5.1°C 80% Calm Calm -- 30.21 in1023.0 mb - 0.00 in0.0 mm 0.00 in0.0 mm
08:15 AM 29.5°F-1.4°C 23.5°F-4.7°C 78% Calm Calm -- 30.22 in1023.4 mb - 0.00 in0.0 mm 0.00 in0.0 mm
08:30 AM 30.2°F-1.0°C 24.5°F-4.2°C 79% Calm Calm 1.2 mph1.9 kmh 30.23 in1023.7 mb - 0.00 in0.0 mm 0.00 in0.0 mm
08:45 AM 31.7°F-0.2°C 25.0°F-3.9°C 76% 1.2 mph NW1.9 kmh NW 2.3 mph3.7 kmh 30.23 in1023.7 mb - 0.00 in0.0 mm 0.00 in0.0 mm
09:00 AM 32.0°F0.0°C 24.3°F-4.3°C 73% 1.2 mph NW1.9 kmh NW 3.5 mph5.6 kmh 30.23 in1023.7 mb - 0.00 in0.0 mm 0.00 in0.0 mm
09:15 AM 32.4°F0.2°C 24.4°F-4.2°C 72% 3.5 mph NW5.6 kmh NW 3.5 mph5.6 kmh 30.22 in1023.4 mb - 0.00 in0.0 mm 0.00 in0.0 mm
09:30 AM 33.8°F1.0°C 24.7°F-4.1°C 69% 3.5 mph N5.6 kmh N 4.6 mph7.4 kmh 30.23 in1023.7 mb - 0.00 in0.0 mm 0.00 in0.0 mm
09:45 AM 34.6°F1.4°C 24.8°F-4.0°C 67% 1.2 mph NNW1.9 kmh NNW 3.5 mph5.6 kmh 30.23 in1023.7 mb - 0.00 in0.0 mm 0.00 in0.0 mm
10:00 AM 33.8°F1.0°C 23.6°F-4.7°C 66% 1.2 mph N1.9 kmh N 3.5 mph5.6 kmh 30.24 in1024.0 mb - 0.00 in0.0 mm 0.00 in0.0 mm
10:15 AM 34.3°F1.3°C 24.1°F-4.4°C 66% 3.5 mph NE5.6 kmh NE 5.8 mph9.3 kmh 30.23 in1023.7 mb - 0.00 in0.0 mm 0.00 in0.0 mm
10:30 AM 34.3°F1.3°C 24.5°F-4.2°C 67% 3.5 mph NE5.6 kmh NE 3.5 mph5.6 kmh 30.23 in1023.7 mb - 0.00 in0.0 mm 0.00 in0.0 mm
10:45 AM 35.1°F1.7°C 25.2°F-3.8°C 67% 2.3 mph NE3.7 kmh NE 3.5 mph5.6 kmh 30.22 in1023.4 mb - 0.00 in0.0 mm 0.00 in0.0 mm
11:00 AM 35.7°F2.1°C 25.8°F-3.4°C 67% 4.6 mph E7.4 kmh E 8.1 mph13.0 kmh 30.23 in1023.7 mb - 0.00 in0.0 mm 0.00 in0.0 mm
11:15 AM 35.8°F2.1°C 25.9°F-3.4°C 67% 6.9 mph E11.1 kmh E 10.4 mph16.7 kmh 30.22 in1023.4 mb - 0.00 in0.0 mm 0.00 in0.0 mm
11:30 AM 35.6°F2.0°C 26.1°F-3.3°C 68% 2.3 mph SE3.7 kmh SE 8.1 mph13.0 kmh 30.22 in1023.4 mb - 0.00 in0.0 mm 0.00 in0.0 mm
11:45 AM 35.8°F2.1°C 25.9°F-3.4°C 67% 3.5 mph ENE5.6 kmh ENE 8.1 mph13.0 kmh 30.20 in1022.7 mb - 0.00 in0.0 mm 0.00 in0.0 mm
12:00 PM 35.4°F1.9°C 25.5°F-3.6°C 67% 5.8 mph E9.3 kmh E 9.2 mph14.8 kmh 30.20 in1022.7 mb - 0.00 in0.0 mm 0.00 in0.0 mm
12:15 PM 35.1°F1.7°C 25.6°F-3.6°C 68% 3.5 mph ENE5.6 kmh ENE 3.5 mph5.6 kmh 30.19 in1022.4 mb - 0.00 in0.0 mm 0.00 in0.0 mm
12:30 PM 35.4°F1.9°C 25.5°F-3.6°C 67% 4.6 mph E7.4 kmh E 8.1 mph13.0 kmh 30.18 in1022.0 mb - 0.00 in0.0 mm 0.00 in0.0 mm
12:45 PM 35.6°F2.0°C 25.3°F-3.7°C 66% 3.5 mph E5.6 kmh E 3.5 mph5.6 kmh 30.16 in1021.3 mb - 0.00 in0.0 mm 0.00 in0.0 mm
01:00 PM 35.4°F1.9°C 24.5°F-4.2°C 64% 4.6 mph E7.4 kmh E 10.4 mph16.7 kmh 30.16 in1021.3 mb - 0.00 in0.0 mm 0.00 in0.0 mm
01:15 PM 35.2°F1.8°C 24.6°F-4.1°C 65% 4.6 mph ENE7.4 kmh ENE 11.5 mph18.5 kmh 30.15 in1021.0 mb - 0.00 in0.0 mm 0.00 in0.0 mm
01:30 PM 34.9°F1.6°C 24.0°F-4.4°C 64% 1.2 mph ENE1.9 kmh ENE 3.5 mph5.6 kmh 30.15 in1021.0 mb - 0.00 in0.0 mm 0.00 in0.0 mm
01:45 PM 34.9°F1.6°C 23.9°F-4.5°C 64% 3.5 mph ENE5.6 kmh ENE 10.4 mph16.7 kmh 30.14 in1020.7 mb - 0.00 in0.0 mm 0.00 in0.0 mm
02:00 PM 34.8°F1.6°C 24.2°F-4.3°C 65% 3.5 mph ENE5.6 kmh ENE 6.9 mph11.1 kmh 30.14 in1020.7 mb - 0.00 in0.0 mm 0.00 in0.0 mm
02:15 PM 34.8°F1.6°C 24.3°F-4.3°C 65% 4.6 mph ESE7.4 kmh ESE 6.9 mph11.1 kmh 30.13 in1020.3 mb - 0.00 in0.0 mm 0.00 in0.0 mm
02:30 PM 35.0°F1.7°C 24.4°F-4.2°C 65% 4.6 mph E7.4 kmh E 8.1 mph13.0 kmh 30.12 in1020.0 mb - 0.00 in0.0 mm 0.00 in0.0 mm
02:45 PM 35.0°F1.7°C 24.4°F-4.2°C 65% 4.6 mph E7.4 kmh E 5.8 mph9.3 kmh 30.13 in1020.3 mb - 0.00 in0.0 mm 0.00 in0.0 mm
03:00 PM 35.0°F1.7°C 25.1°F-3.8°C 67% 2.3 mph E3.7 kmh E 3.5 mph5.6 kmh 30.12 in1020.0 mb - 0.00 in0.0 mm 0.00 in0.0 mm
03:15 PM 35.0°F1.7°C 25.1°F-3.8°C 67% 2.3 mph NE3.7 kmh NE 3.5 mph5.6 kmh 30.13 in1020.3 mb - 0.00 in0.0 mm 0.00 in0.0 mm
03:30 PM 35.1°F1.7°C 25.2°F-3.8°C 67% 3.5 mph NE5.6 kmh NE 4.6 mph7.4 kmh 30.13 in1020.3 mb - 0.00 in0.0 mm 0.00 in0.0 mm
03:45 PM 35.1°F1.7°C 25.6°F-3.6°C 68% 3.5 mph NE5.6 kmh NE 6.9 mph11.1 kmh 30.11 in1019.6 mb - 0.00 in0.0 mm 0.00 in0.0 mm
04:00 PM 35.1°F1.7°C 26.0°F-3.3°C 69% 2.3 mph NE3.7 kmh NE 3.5 mph5.6 kmh 30.11 in1019.6 mb - 0.00 in0.0 mm 0.00 in0.0 mm
04:15 PM 35.1°F1.7°C 25.9°F-3.4°C 69% 2.3 mph E3.7 kmh E 4.6 mph7.4 kmh 30.10 in1019.3 mb - 0.00 in0.0 mm 0.00 in0.0 mm
04:30 PM 35.1°F1.7°C 26.3°F-3.2°C 70% 1.2 mph ENE1.9 kmh ENE 3.5 mph5.6 kmh 30.09 in1019.0 mb - 0.00 in0.0 mm 0.00 in0.0 mm
04:45 PM 35.3°F1.8°C 26.5°F-3.1°C 70% 3.5 mph E5.6 kmh E 3.5 mph5.6 kmh 30.08 in1018.6 mb - 0.00 in0.0 mm 0.00 in0.0 mm
05:00 PM 35.5°F1.9°C 26.6°F-3.0°C 70% 1.2 mph E1.9 kmh E 6.9 mph11.1 kmh 30.08 in1018.6 mb - 0.00 in0.0 mm 0.00 in0.0 mm
05:15 PM 35.5°F1.9°C 26.7°F-2.9°C 70% 5.8 mph E9.3 kmh E 6.9 mph11.1 kmh 30.08 in1018.6 mb - 0.00 in0.0 mm 0.00 in0.0 mm
05:30 PM 35.7°F2.1°C 26.9°F-2.8°C 70% 2.3 mph E3.7 kmh E 3.5 mph5.6 kmh 30.09 in1019.0 mb - 0.00 in0.0 mm 0.00 in0.0 mm
05:45 PM 35.5°F1.9°C 27.4°F-2.6°C 72% 4.6 mph E7.4 kmh E 6.9 mph11.1 kmh 30.07 in1018.3 mb - 0.00 in0.0 mm 0.00 in0.0 mm
06:00 PM 35.4°F1.9°C 27.6°F-2.4°C 73% 4.6 mph E7.4 kmh E 6.9 mph11.1 kmh 30.05 in1017.6 mb - 0.00 in0.0 mm 0.00 in0.0 mm
06:15 PM 35.4°F1.9°C 27.6°F-2.4°C 73% 2.3 mph E3.7 kmh E 6.9 mph11.1 kmh 30.05 in1017.6 mb - 0.00 in0.0 mm 0.00 in0.0 mm
06:30 PM 35.6°F2.0°C 27.8°F-2.3°C 73% 3.5 mph E5.6 kmh E 3.5 mph5.6 kmh 30.06 in1017.9 mb - 0.00 in0.0 mm 0.00 in0.0 mm
06:45 PM 35.7°F2.1°C 28.2°F-2.1°C 74% 4.6 mph E7.4 kmh E 8.1 mph13.0 kmh 30.04 in1017.3 mb - 0.00 in0.0 mm 0.00 in0.0 mm
07:00 PM 35.6°F2.0°C 28.5°F-1.9°C 75% 4.6 mph E7.4 kmh E 11.5 mph18.5 kmh 30.02 in1016.6 mb - 0.00 in0.0 mm 0.00 in0.0 mm
07:15 PM 35.5°F1.9°C 28.7°F-1.8°C 76% 5.8 mph E9.3 kmh E 9.2 mph14.8 kmh 30.01 in1016.3 mb - 0.00 in0.0 mm 0.00 in0.0 mm
07:30 PM 35.3°F1.8°C 29.1°F-1.6°C 78% 4.6 mph ESE7.4 kmh ESE 9.2 mph14.8 kmh 30.00 in1015.9 mb - 0.00 in0.0 mm 0.00 in0.0 mm
07:45 PM 35.2°F1.8°C 29.3°F-1.5°C 79% 6.9 mph E11.1 kmh E 10.4 mph16.7 kmh 29.99 in1015.6 mb - 0.00 in0.0 mm 0.00 in0.0 mm
08:00 PM 34.7°F1.5°C 29.8°F-1.2°C 82% 4.6 mph E7.4 kmh E 8.1 mph13.0 kmh 29.99 in1015.6 mb - 0.00 in0.0 mm 0.00 in0.0 mm
08:15 PM 33.9°F1.1°C 30.2°F-1.0°C 86% 2.3 mph E3.7 kmh E 8.1 mph13.0 kmh 30.00 in1015.9 mb - 0.00 in0.0 mm 0.00 in0.0 mm
08:30 PM 33.4°F0.8°C 30.2°F-1.0°C 88% 4.6 mph E7.4 kmh E 6.9 mph11.1 kmh 29.98 in1015.2 mb - 0.00 in0.0 mm 0.00 in0.0 mm
08:45 PM 33.2°F0.7°C 30.3°F-0.9°C 89% 3.5 mph NE5.6 kmh NE 4.6 mph7.4 kmh 29.96 in1014.6 mb - 0.00 in0.0 mm 0.00 in0.0 mm
09:00 PM 33.0°F0.6°C 30.4°F-0.9°C 90% 4.6 mph ENE7.4 kmh ENE 6.9 mph11.1 kmh 29.94 in1013.9 mb - 0.00 in0.0 mm 0.00 in0.0 mm
09:15 PM 33.0°F0.6°C 30.7°F-0.7°C 91% 4.6 mph ENE7.4 kmh ENE 10.4 mph16.7 kmh 29.92 in1013.2 mb - 0.00 in0.0 mm 0.00 in0.0 mm
09:30 PM 32.9°F0.5°C 30.9°F-0.6°C 92% 4.6 mph ENE7.4 kmh ENE 9.2 mph14.8 kmh 29.91 in1012.9 mb - 0.00 in0.0 mm 0.00 in0.0 mm
09:45 PM 32.9°F0.5°C 30.8°F-0.7°C 92% 4.6 mph ENE7.4 kmh ENE 6.9 mph11.1 kmh 29.91 in1012.9 mb - 0.00 in0.0 mm 0.00 in0.0 mm
10:00 PM 32.9°F0.5°C 30.8°F-0.7°C 92% 5.8 mph E9.3 kmh E 9.2 mph14.8 kmh 29.89 in1012.2 mb - 0.00 in0.0 mm 0.00 in0.0 mm
10:15 PM 32.9°F0.5°C 31.1°F-0.5°C 93% 2.3 mph NE3.7 kmh NE 4.6 mph7.4 kmh 29.87 in1011.5 mb - 0.00 in0.0 mm 0.00 in0.0 mm
10:30 PM 33.1°F0.6°C 31.2°F-0.4°C 93% 3.5 mph ENE5.6 kmh ENE 5.8 mph9.3 kmh 29.88 in1011.9 mb - 0.00 in0.0 mm 0.00 in0.0 mm
10:45 PM 33.2°F0.7°C 31.4°F-0.3°C 93% 8.1 mph E13.0 kmh E 11.5 mph18.5 kmh 29.85 in1010.8 mb - 0.00 in0.0 mm 0.00 in0.0 mm
11:00 PM 33.3°F0.7°C 31.5°F-0.3°C 93% 5.8 mph E9.3 kmh E 13.8 mph22.2 kmh 29.84 in1010.5 mb - 0.00 in0.0 mm 0.00 in0.0 mm
11:15 PM 33.4°F0.8°C 31.6°F-0.2°C 93% 6.9 mph E11.1 kmh E 11.5 mph18.5 kmh 29.84 in1010.5 mb - 0.00 in0.0 mm 0.00 in0.0 mm
11:30 PM 33.5°F0.8°C 31.7°F-0.2°C 93% 6.9 mph E11.1 kmh E 11.5 mph18.5 kmh 29.82 in1009.8 mb - 0.03 in0.8 mm 0.03 in0.8 mm
11:45 PM 33.7°F0.9°C 31.9°F-0.1°C 93% 6.9 mph ENE11.1 kmh ENE 10.4 mph16.7 kmh 29.81 in1009.5 mb - 0.09 in2.3 mm 0.09 in2.3 mm